createdAt,value
2019-05-20T00:01:59.495Z,84.28
2019-05-20T00:04:31.309Z,84.08
2019-05-20T00:07:03.153Z,84.08
2019-05-20T00:09:34.572Z,84.07
2019-05-20T00:12:06.004Z,84.75
2019-05-20T00:14:37.190Z,84.55
2019-05-20T00:17:08.612Z,84.79
2019-05-20T00:19:40.075Z,84.66
2019-05-20T00:22:11.439Z,84.92
2019-05-20T00:24:42.965Z,84.87
2019-05-20T00:27:14.695Z,84.74
2019-05-20T00:29:46.233Z,85.49
2019-05-20T00:32:18.957Z,86.36
2019-05-20T00:34:50.525Z,87.28
2019-05-20T00:37:21.841Z,87.38
2019-05-20T00:39:53.292Z,87.26
2019-05-20T00:42:24.631Z,86.43
2019-05-20T00:44:56.006Z,87.34
2019-05-20T00:47:27.548Z,87.22
2019-05-20T00:49:59.145Z,87.11
2019-05-20T00:52:30.882Z,86.15
2019-05-20T00:55:02.360Z,85.93
2019-05-20T00:57:33.568Z,86.56
2019-05-20T01:00:08.108Z,85.97
2019-05-20T01:02:40.505Z,85.95
2019-05-20T01:05:11.725Z,85.81
2019-05-20T01:07:43.096Z,85.75
2019-05-20T01:10:15.189Z,85.52
2019-05-20T01:12:47.703Z,85.39
2019-05-20T01:15:20.059Z,85.32
2019-05-20T01:17:52.647Z,85.27
2019-05-20T01:20:23.797Z,85.69
2019-05-20T01:22:55.315Z,85.44
2019-05-20T01:25:26.971Z,86.18
2019-05-20T01:27:59.535Z,85.97
2019-05-20T01:30:30.680Z,85.87
2019-05-20T01:33:13.435Z,85.88
2019-05-20T01:35:34.976Z,86.28
2019-05-20T01:38:06.525Z,86.92
2019-05-20T01:40:37.793Z,86.66
2019-05-20T01:43:09.824Z,86.55
2019-05-20T01:45:41.222Z,85.82
2019-05-20T01:48:12.878Z,86.04
2019-05-20T01:50:45.170Z,86.13
2019-05-20T01:53:16.378Z,86.04
2019-05-20T01:55:48.128Z,86.37
2019-05-20T01:58:19.988Z,86.48
2019-05-20T02:00:51.339Z,86.57
2019-05-20T02:03:31.782Z,86.69
2019-05-20T02:05:56.781Z,86.40
2019-05-20T02:08:28.145Z,86.51
2019-05-20T02:10:59.347Z,86.15
2019-05-20T02:13:32.040Z,86.20
2019-05-20T02:16:04.726Z,87.22
2019-05-20T02:18:37.451Z,87.90
2019-05-20T02:21:08.934Z,89.19
2019-05-20T02:23:39.908Z,89.56
2019-05-20T02:26:11.295Z,90.26
2019-05-20T02:28:42.921Z,89.79
2019-05-20T02:31:14.303Z,89.70
2019-05-20T02:33:51.853Z,89.21
2019-05-20T02:36:18.371Z,88.64
2019-05-20T02:38:49.587Z,88.02
2019-05-20T02:41:21.537Z,87.87
2019-05-20T02:43:54.038Z,88.28
2019-05-20T02:46:25.797Z,88.84
2019-05-20T02:48:58.790Z,89.24
2019-05-20T02:51:31.615Z,88.41
2019-05-20T02:54:03.779Z,87.85
2019-05-20T02:56:35.035Z,88.04
2019-05-20T02:59:06.998Z,88.15
2019-05-20T03:01:38.408Z,87.61
2019-05-20T03:04:12.683Z,87.53
2019-05-20T03:06:43.398Z,87.39
2019-05-20T03:09:14.449Z,87.73
2019-05-20T03:11:46.624Z,88.34
2019-05-20T03:14:18.577Z,88.50
2019-05-20T03:16:49.852Z,88.58
2019-05-20T03:19:24.471Z,88.30
2019-05-20T03:21:56.206Z,87.87
2019-05-20T03:24:27.891Z,88.36
2019-05-20T03:27:00.324Z,88.65
2019-05-20T03:29:32.918Z,88.37
2019-05-20T03:32:04.047Z,88.26
2019-05-20T03:34:48.414Z,88.51
2019-05-20T03:37:09.093Z,88.63
2019-05-20T03:39:42.050Z,88.68
2019-05-20T03:42:13.422Z,89.13
2019-05-20T03:44:44.743Z,89.20
2019-05-20T03:47:16.174Z,88.69
2019-05-20T03:49:47.700Z,88.97
2019-05-20T03:52:19.214Z,89.18
2019-05-20T03:54:51.028Z,89.29
2019-05-20T03:57:22.422Z,89.71
2019-05-20T03:59:55.308Z,89.61
2019-05-20T04:02:27.791Z,89.44
2019-05-20T04:05:02.755Z,89.42
2019-05-20T04:07:32.335Z,89.46
2019-05-20T04:10:06.370Z,89.39
2019-05-20T04:12:37.781Z,89.09
2019-05-20T04:15:09.868Z,89.67
2019-05-20T04:17:41.193Z,90.28
2019-05-20T04:20:12.848Z,90.73
2019-05-20T04:22:44.132Z,90.44
2019-05-20T04:25:15.714Z,90.40
2019-05-20T04:27:47.192Z,90.67
2019-05-20T04:30:19.211Z,90.90
2019-05-20T04:32:51.102Z,90.54
2019-05-20T04:35:23.589Z,90.29
2019-05-20T04:37:55.127Z,89.96
2019-05-20T04:40:29.018Z,90.15
2019-05-20T04:43:00.805Z,90.26
2019-05-20T04:45:32.887Z,90.21
2019-05-20T04:48:04.466Z,90.00
2019-05-20T04:50:35.977Z,90.33
2019-05-20T04:53:07.122Z,89.65
2019-05-20T04:55:39.037Z,89.15
2019-05-20T04:58:10.242Z,89.01
2019-05-20T05:00:44.598Z,89.18
2019-05-20T05:03:16.365Z,88.71
2019-05-20T05:05:48.750Z,88.25
2019-05-20T05:08:21.325Z,88.00
2019-05-20T05:10:53.226Z,87.66
2019-05-20T05:13:25.201Z,86.53
2019-05-20T05:15:56.848Z,86.71
2019-05-20T05:18:28.574Z,87.38
2019-05-20T05:21:00.361Z,86.83
2019-05-20T05:23:31.509Z,86.28
2019-05-20T05:26:03.009Z,86.02
2019-05-20T05:28:34.541Z,84.84
2019-05-20T05:31:05.825Z,84.28
2019-05-20T05:33:37.730Z,83.89
2019-05-20T05:36:09.094Z,83.38
2019-05-20T05:38:41.157Z,83.42
2019-05-20T05:41:12.628Z,83.41
2019-05-20T05:43:44.131Z,82.35
2019-05-20T05:46:15.565Z,82.20
2019-05-20T05:48:46.963Z,81.19
2019-05-20T05:51:18.552Z,81.40
2019-05-20T05:53:51.270Z,81.39
2019-05-20T05:56:22.675Z,81.56
2019-05-20T05:58:53.816Z,80.87
2019-05-20T06:01:27.910Z,81.40
2019-05-20T06:03:59.356Z,81.53
2019-05-20T06:06:30.678Z,81.41
2019-05-20T06:09:02.377Z,81.39
2019-05-20T06:11:33.551Z,82.02
2019-05-20T06:14:06.274Z,81.80
2019-05-20T06:16:37.520Z,80.70
2019-05-20T06:19:08.520Z,81.09
2019-05-20T06:21:41.481Z,80.60
2019-05-20T06:24:13.362Z,80.25
2019-05-20T06:26:44.876Z,80.03
2019-05-20T06:29:17.516Z,80.32
2019-05-20T06:31:49.104Z,80.36
2019-05-20T06:34:20.989Z,80.86
2019-05-20T06:36:53.996Z,80.04
2019-05-20T06:39:26.473Z,80.23
2019-05-20T06:41:58.214Z,79.40
2019-05-20T06:44:30.707Z,78.70
2019-05-20T06:47:03.016Z,78.90
2019-05-20T06:49:34.505Z,78.36
2019-05-20T06:52:06.165Z,79.18
2019-05-20T06:54:37.641Z,77.83
2019-05-20T06:57:09.013Z,77.68
2019-05-20T06:59:41.177Z,76.09
2019-05-20T07:02:13.299Z,75.82
2019-05-20T07:04:45.082Z,75.82
2019-05-20T07:07:21.030Z,75.68
2019-05-20T07:09:49.328Z,76.36
2019-05-20T07:12:21.477Z,75.78
2019-05-20T07:14:53.277Z,74.85
2019-05-20T07:17:24.778Z,74.48
2019-05-20T07:19:56.386Z,74.63
2019-05-20T07:22:28.181Z,75.21
2019-05-20T07:24:59.671Z,74.40
2019-05-20T07:27:31.480Z,74.47
2019-05-20T07:30:03.565Z,75.92
2019-05-20T07:32:36.903Z,76.49
2019-05-20T07:35:09.200Z,77.02
2019-05-20T07:37:41.277Z,76.43
2019-05-20T07:40:14.273Z,75.72
2019-05-20T07:42:45.761Z,76.86
2019-05-20T07:45:17.611Z,75.26
2019-05-20T07:47:48.559Z,75.95
2019-05-20T07:50:21.291Z,75.84
2019-05-20T07:52:52.527Z,76.50
2019-05-20T07:55:39.347Z,76.36
2019-05-20T07:58:15.919Z,75.63
2019-05-20T08:00:47.870Z,75.96
2019-05-20T08:03:20.516Z,75.81
2019-05-20T08:05:52.898Z,75.96
2019-05-20T08:08:32.671Z,75.76
2019-05-20T08:11:04.972Z,76.64
2019-05-20T08:13:36.513Z,76.20
2019-05-20T08:16:18.149Z,76.47
2019-05-20T08:19:08.485Z,77.05
2019-05-20T08:21:45.329Z,76.96
2019-05-20T08:24:18.473Z,77.37
2019-05-20T08:26:49.629Z,77.46
2019-05-20T08:29:20.719Z,77.80
2019-05-20T08:31:52.666Z,77.25
2019-05-20T08:34:27.387Z,75.79
2019-05-20T08:36:59.420Z,75.50
2019-05-20T08:39:31.943Z,75.69
2019-05-20T08:42:04.071Z,76.09
2019-05-20T08:44:37.564Z,76.82
2019-05-20T08:47:09.474Z,76.76
2019-05-20T08:49:41.337Z,77.37
2019-05-20T08:52:14.191Z,78.24
2019-05-20T08:54:45.822Z,78.37
2019-05-20T08:57:17.346Z,78.42
2019-05-20T08:59:48.849Z,78.56
2019-05-20T09:02:20.430Z,78.37
2019-05-20T09:04:52.523Z,77.89
2019-05-20T09:07:24.329Z,78.33
2019-05-20T09:09:56.001Z,77.74
2019-05-20T09:12:27.634Z,77.83
2019-05-20T09:14:59.740Z,77.76
2019-05-20T09:17:38.622Z,78.21
2019-05-20T09:20:08.905Z,77.94
2019-05-20T09:22:40.293Z,78.53
2019-05-20T09:25:16.749Z,78.63
2019-05-20T09:27:51.292Z,79.28
2019-05-20T09:30:23.844Z,79.39
2019-05-20T09:32:56.253Z,79.40
2019-05-20T09:35:28.222Z,79.38
2019-05-20T09:37:59.922Z,79.28
2019-05-20T09:40:34.636Z,79.73
2019-05-20T09:43:25.083Z,79.39
2019-05-20T09:46:07.631Z,79.76
2019-05-20T09:48:30.561Z,80.37
2019-05-20T09:51:02.081Z,80.13
2019-05-20T09:53:34.453Z,79.96
2019-05-20T09:56:07.404Z,80.21
2019-05-20T09:58:39.214Z,80.39
2019-05-20T10:01:10.663Z,80.42
2019-05-20T10:03:42.596Z,80.55
2019-05-20T10:06:15.228Z,80.83
2019-05-20T10:08:47.021Z,80.66
2019-05-20T10:11:19.867Z,80.54
2019-05-20T10:13:51.851Z,80.85
2019-05-20T10:16:23.237Z,80.55
2019-05-20T10:18:55.481Z,80.64
2019-05-20T10:21:27.787Z,80.94
2019-05-20T10:24:00.384Z,80.78
2019-05-20T10:26:32.174Z,80.95
2019-05-20T10:29:04.479Z,81.38
2019-05-20T10:31:36.549Z,81.36
2019-05-20T10:34:09.107Z,81.55
2019-05-20T10:36:41.101Z,81.43
2019-05-20T10:39:13.352Z,81.16
2019-05-20T10:41:46.625Z,81.07
2019-05-20T10:44:19.020Z,80.84
2019-05-20T10:46:50.820Z,80.98
2019-05-20T10:49:22.896Z,81.18
2019-05-20T10:51:55.256Z,81.43
2019-05-20T10:54:28.108Z,80.68
2019-05-20T10:57:00.368Z,79.62
2019-05-20T10:59:32.067Z,78.87
2019-05-20T11:02:04.243Z,78.44
2019-05-20T11:04:36.142Z,77.90
2019-05-20T11:07:07.840Z,76.89
2019-05-20T11:09:39.559Z,76.71
2019-05-20T11:12:11.349Z,76.23
2019-05-20T11:14:43.194Z,76.25
2019-05-20T11:17:15.253Z,76.33
2019-05-20T11:19:47.406Z,74.08
2019-05-20T11:22:18.959Z,73.88
2019-05-20T11:24:51.063Z,73.77
2019-05-20T11:27:22.700Z,73.90
2019-05-20T11:29:54.748Z,73.07
2019-05-20T11:32:26.833Z,72.69
2019-05-20T11:34:58.474Z,71.99
2019-05-20T11:37:29.957Z,70.99
2019-05-20T11:40:02.128Z,70.67
2019-05-20T11:42:34.081Z,71.04
2019-05-20T11:45:09.375Z,70.35
2019-05-20T11:47:41.785Z,69.47
2019-05-20T11:50:15.879Z,69.42
2019-05-20T11:52:48.016Z,67.97
2019-05-20T11:55:19.825Z,68.12
2019-05-20T11:57:52.502Z,67.67
2019-05-20T12:00:24.525Z,68.67
2019-05-20T12:05:28.980Z,65.66
2019-05-20T12:08:01.498Z,65.57
2019-05-20T12:10:33.918Z,63.54
2019-05-20T12:13:05.533Z,65.24
2019-05-20T12:15:37.549Z,63.47
2019-05-20T12:18:09.058Z,65.11
2019-05-20T12:20:41.006Z,64.32
2019-05-20T12:23:13.255Z,65.81
2019-05-20T12:25:45.683Z,66.59
2019-05-20T12:28:17.571Z,66.28
2019-05-20T12:30:50.087Z,66.86
2019-05-20T12:33:22.383Z,66.10
2019-05-20T12:35:54.198Z,66.87
2019-05-20T12:38:25.457Z,64.69
2019-05-20T12:40:57.377Z,63.52
2019-05-20T12:43:29.010Z,64.14
2019-05-20T12:46:00.442Z,63.93
2019-05-20T12:48:32.208Z,63.70
2019-05-20T12:51:04.314Z,63.75
2019-05-20T12:53:36.028Z,63.70
2019-05-20T12:56:08.186Z,64.04
2019-05-20T12:58:40.142Z,64.31
2019-05-20T13:01:12.265Z,61.79
2019-05-20T13:03:44.230Z,62.60
2019-05-20T13:06:15.861Z,61.59
2019-05-20T13:08:47.221Z,61.71
2019-05-20T13:11:19.182Z,62.54
2019-05-20T13:13:52.136Z,60.90
2019-05-20T13:16:24.707Z,60.67
2019-05-20T13:18:56.947Z,59.57
2019-05-20T13:21:28.518Z,58.98
2019-05-20T13:24:00.970Z,59.37
2019-05-20T13:26:33.190Z,59.64
2019-05-20T13:29:05.173Z,59.40
2019-05-20T13:31:37.549Z,60.13
2019-05-20T13:34:11.110Z,60.75
2019-05-20T13:36:43.062Z,58.40
2019-05-20T13:39:14.564Z,58.76
2019-05-20T13:41:46.067Z,59.54
2019-05-20T13:44:17.462Z,59.30
2019-05-20T13:46:50.263Z,60.07
2019-05-20T13:49:22.687Z,59.34
2019-05-20T13:51:55.136Z,56.67
2019-05-20T13:54:26.568Z,56.27
2019-05-20T13:56:58.652Z,56.95
2019-05-20T13:59:30.729Z,57.84
2019-05-20T14:02:02.769Z,56.61
2019-05-20T14:04:34.744Z,56.60
2019-05-20T14:07:06.147Z,58.65
2019-05-20T14:09:37.639Z,56.96
2019-05-20T14:12:10.171Z,57.27
2019-05-20T14:14:41.425Z,57.57
2019-05-20T14:17:13.977Z,57.20
2019-05-20T14:19:45.818Z,54.92
2019-05-20T14:22:18.179Z,54.21
2019-05-20T14:24:50.701Z,53.09
2019-05-20T14:27:22.419Z,53.92
2019-05-20T14:29:58.757Z,54.06
2019-05-20T14:32:31.330Z,53.84
2019-05-20T14:35:02.761Z,53.48
2019-05-20T14:37:35.636Z,53.68
2019-05-20T14:40:08.673Z,53.70
2019-05-20T14:42:41.059Z,54.08
2019-05-20T14:45:13.796Z,55.04
2019-05-20T14:47:46.885Z,56.09
2019-05-20T14:50:19.120Z,56.21
2019-05-20T14:52:51.757Z,55.64
2019-05-20T14:55:24.168Z,55.93
2019-05-20T14:57:56.314Z,55.79
2019-05-20T15:00:28.850Z,56.25
2019-05-20T15:03:01.744Z,56.15
2019-05-20T15:05:33.658Z,56.00
2019-05-20T15:08:05.798Z,55.48
2019-05-20T15:10:37.045Z,53.75
2019-05-20T15:13:08.554Z,53.20
2019-05-20T15:15:41.537Z,52.84
2019-05-20T15:18:13.422Z,52.97
2019-05-20T15:20:44.966Z,54.26
2019-05-20T15:23:19.611Z,53.24
2019-05-20T15:25:51.228Z,53.37
2019-05-20T15:28:23.019Z,53.67
2019-05-20T15:31:25.854Z,53.04
2019-05-20T15:34:10.230Z,52.38
2019-05-20T15:36:50.661Z,51.45
2019-05-20T15:39:23.240Z,51.85
2019-05-20T15:41:55.721Z,51.59
2019-05-20T15:44:36.920Z,51.86
2019-05-20T15:47:22.213Z,52.09
2019-05-20T15:49:54.611Z,52.44
2019-05-20T15:52:26.454Z,53.28
2019-05-20T15:54:58.365Z,53.13
2019-05-20T15:57:29.754Z,53.91
2019-05-20T16:00:01.339Z,53.82
2019-05-20T16:02:50.698Z,52.79
2019-05-20T16:06:22.891Z,53.08
2019-05-20T16:09:36.299Z,52.96
2019-05-20T16:12:34.623Z,51.25
2019-05-20T16:15:36.958Z,50.75
2019-05-20T16:18:23.102Z,49.28
2019-05-20T16:20:55.538Z,49.99
2019-05-20T16:23:28.394Z,49.38
2019-05-20T16:25:59.956Z,49.39
2019-05-20T16:28:31.303Z,49.54
2019-05-20T16:31:03.372Z,48.99
2019-05-20T16:33:34.852Z,48.66
2019-05-20T16:36:07.100Z,48.72
2019-05-20T16:38:40.130Z,49.25
2019-05-20T16:41:11.638Z,49.77
2019-05-20T16:43:43.169Z,49.77
2019-05-20T16:46:15.279Z,50.45
2019-05-20T16:48:47.138Z,51.31
2019-05-20T16:51:22.067Z,51.66
2019-05-20T16:53:53.380Z,50.58
2019-05-20T16:56:24.862Z,51.25
2019-05-20T16:58:55.969Z,50.65
2019-05-20T17:01:28.527Z,51.52
2019-05-20T17:03:59.458Z,52.36
2019-05-20T17:06:31.605Z,52.65
2019-05-20T17:09:04.015Z,51.93
2019-05-20T17:11:35.736Z,51.75
2019-05-20T17:14:10.734Z,52.14
2019-05-20T17:16:41.651Z,52.86
2019-05-20T17:19:13.213Z,53.37
2019-05-20T17:21:45.062Z,54.13
2019-05-20T17:24:17.839Z,54.50
2019-05-20T17:26:49.524Z,54.35
2019-05-20T17:29:21.930Z,54.17
2019-05-20T17:31:53.622Z,54.42
2019-05-20T17:34:25.069Z,53.92
2019-05-20T17:36:56.824Z,54.29
2019-05-20T17:39:28.651Z,53.68
2019-05-20T17:42:00.765Z,53.64
2019-05-20T17:44:33.049Z,54.33
2019-05-20T17:47:04.621Z,54.33
2019-05-20T17:49:36.346Z,55.25
2019-05-20T17:52:07.545Z,54.28
2019-05-20T17:54:38.758Z,55.32
2019-05-20T17:57:10.789Z,55.60
2019-05-20T17:59:42.130Z,55.80
2019-05-20T18:02:13.908Z,56.06
2019-05-20T18:04:45.708Z,55.71
2019-05-20T18:07:17.887Z,56.77
2019-05-20T18:09:51.606Z,56.15
2019-05-20T18:12:23.216Z,56.97
2019-05-20T18:14:57.250Z,56.62
2019-05-20T18:17:28.712Z,56.98
2019-05-20T18:20:00.203Z,56.62
2019-05-20T18:22:31.606Z,56.94
2019-05-20T18:25:02.904Z,57.28
2019-05-20T18:27:34.624Z,59.18
2019-05-20T18:30:06.085Z,59.51
2019-05-20T18:32:38.877Z,61.10
2019-05-20T18:35:11.183Z,61.61
2019-05-20T18:37:43.838Z,62.61
2019-05-20T18:40:16.914Z,62.77
2019-05-20T18:43:03.025Z,64.01
2019-05-20T18:45:52.907Z,63.71
2019-05-20T18:48:25.587Z,64.39
2019-05-20T18:50:58.164Z,64.72
2019-05-20T18:53:31.041Z,64.92
2019-05-20T18:56:02.853Z,65.91
2019-05-20T18:58:36.686Z,66.38
2019-05-20T19:01:08.611Z,66.23
2019-05-20T19:03:40.110Z,66.14
2019-05-20T19:06:12.082Z,66.57
2019-05-20T19:08:44.213Z,66.59
2019-05-20T19:11:16.716Z,67.27
2019-05-20T19:13:48.891Z,67.90
2019-05-20T19:16:20.933Z,68.64
2019-05-20T19:18:52.710Z,68.65
2019-05-20T19:21:25.082Z,68.27
2019-05-20T19:23:56.859Z,68.48
2019-05-20T19:26:28.190Z,69.41
2019-05-20T19:29:00.288Z,69.85
2019-05-20T19:31:32.798Z,70.25
2019-05-20T19:34:05.677Z,70.00
2019-05-20T19:36:37.555Z,70.57
2019-05-20T19:39:10.210Z,70.77
2019-05-20T19:41:43.043Z,70.93
2019-05-20T19:44:14.723Z,71.58
2019-05-20T19:46:46.380Z,71.68
2019-05-20T19:49:18.052Z,71.89
2019-05-20T19:51:49.779Z,71.80
2019-05-20T19:54:21.425Z,71.55
2019-05-20T19:56:52.465Z,72.11
2019-05-20T19:59:24.284Z,72.81
2019-05-20T20:01:56.370Z,72.82
2019-05-20T20:04:27.414Z,73.24
2019-05-20T20:06:59.392Z,73.19
2019-05-20T20:09:32.042Z,73.89
2019-05-20T20:12:03.786Z,73.78
2019-05-20T20:14:35.088Z,73.86
2019-05-20T20:17:09.992Z,73.96
2019-05-20T20:19:44.193Z,74.46
2019-05-20T20:22:20.248Z,74.47
2019-05-20T20:24:53.150Z,75.39
2019-05-20T20:27:24.830Z,75.59
2019-05-20T20:29:57.593Z,76.05
2019-05-20T20:32:37.927Z,75.55
2019-05-20T20:35:02.569Z,75.37
2019-05-20T20:37:34.092Z,75.70
2019-05-20T20:40:06.463Z,76.05
2019-05-20T20:42:38.130Z,76.18
2019-05-20T20:45:09.451Z,76.12
2019-05-20T20:47:42.303Z,76.31
2019-05-20T20:50:15.043Z,76.53
2019-05-20T20:52:47.742Z,76.67
2019-05-20T20:55:20.703Z,76.45
2019-05-20T20:57:51.821Z,76.49
2019-05-20T21:00:23.901Z,76.88
2019-05-20T21:02:55.745Z,77.19
2019-05-20T21:05:27.621Z,76.71
2019-05-20T21:07:58.781Z,76.69
2019-05-20T21:10:30.856Z,77.89
2019-05-20T21:13:03.378Z,77.58
2019-05-20T21:15:35.392Z,77.71
2019-05-20T21:18:07.455Z,77.41
2019-05-20T21:20:39.655Z,77.63
2019-05-20T21:23:20.229Z,77.73
2019-05-20T21:25:53.485Z,77.49
2019-05-20T21:28:25.818Z,77.81
2019-05-20T21:30:56.914Z,78.04
2019-05-20T21:33:29.417Z,78.07
2019-05-20T21:36:01.355Z,78.12
2019-05-20T21:38:32.806Z,78.79
2019-05-20T21:41:04.464Z,79.28
2019-05-20T21:43:37.026Z,79.49
2019-05-20T21:46:07.993Z,79.38
2019-05-20T21:48:39.037Z,79.52
2019-05-20T21:51:11.115Z,79.62
2019-05-20T21:53:51.644Z,79.66
2019-05-20T21:56:25.683Z,80.19
2019-05-20T21:58:57.151Z,79.81
2019-05-20T22:01:30.090Z,79.70
2019-05-20T22:04:02.463Z,79.50
2019-05-20T22:06:34.591Z,79.70
2019-05-20T22:09:07.635Z,79.79
2019-05-20T22:11:39.578Z,79.90
2019-05-20T22:14:11.038Z,80.56
2019-05-20T22:16:43.592Z,80.94
2019-05-20T22:19:14.997Z,80.49
2019-05-20T22:21:49.786Z,81.07
2019-05-20T22:24:21.262Z,81.26
2019-05-20T22:26:54.003Z,81.42
2019-05-20T22:29:26.140Z,81.44
2019-05-20T22:31:58.302Z,81.40
2019-05-20T22:34:29.821Z,81.67
2019-05-20T22:37:02.229Z,81.47
2019-05-20T22:39:34.350Z,81.96
2019-05-20T22:42:06.156Z,82.47
2019-05-20T22:44:37.619Z,82.48
2019-05-20T22:47:08.900Z,82.69
2019-05-20T22:49:40.579Z,83.06
2019-05-20T22:52:12.653Z,83.33
2019-05-20T22:54:44.173Z,83.39
2019-05-20T22:57:15.493Z,82.96
2019-05-20T22:59:46.622Z,82.20
2019-05-20T23:02:18.241Z,81.82
2019-05-20T23:04:49.860Z,81.45
2019-05-20T23:07:21.615Z,81.97
2019-05-20T23:09:53.197Z,82.16
2019-05-20T23:12:24.260Z,82.48
2019-05-20T23:14:56.084Z,82.02
2019-05-20T23:17:27.841Z,81.74
2019-05-20T23:19:58.922Z,81.94
2019-05-20T23:22:30.279Z,81.70
2019-05-20T23:25:02.207Z,81.65
2019-05-20T23:27:33.279Z,81.80
2019-05-20T23:30:07.014Z,81.78
2019-05-20T23:32:38.784Z,81.82
2019-05-20T23:35:10.247Z,81.58
2019-05-20T23:37:42.195Z,81.81
2019-05-20T23:40:16.882Z,82.44
2019-05-20T23:42:49.030Z,82.25
2019-05-20T23:45:20.132Z,82.89
2019-05-20T23:47:51.708Z,83.59
2019-05-20T23:50:22.642Z,83.09
2019-05-20T23:52:54.381Z,83.27
2019-05-20T23:55:25.884Z,82.63
2019-05-20T23:57:57.082Z,82.90
